Terminal Aerodrome Forecast
Issued by NWS

Home | Current Version | Previous Version | Text Only | Print | Product List | Glossary On
Versions: 1 2 3 4 5 6 7 8 9 10 11 12 13 14 15 16
000
FTUS43 KOAX 101700 CCA
TAFCDR
TAF COR
KCDR 101759Z 1018/1118 27011KT P6SM SKC
     FM102200 32010KT P6SM VCTS SCT060CB BKN120
     FM110200 VRB05KT P6SM BKN100=

USA.gov is the U.S. government's official web portal to all federal, state and local government web resources and services.